sensor_id;sensor_type;location;lat;lon;timestamp;P1;durP1;ratioP1;P2;durP2;ratioP2
78987;SDS011;74752;44.786;37.680;2024-03-22T00:01:39;30.55;;;15.95;;
78987;SDS011;74752;44.786;37.680;2024-03-22T00:02:41;35.33;;;17.67;;
78987;SDS011;74752;44.786;37.680;2024-03-22T00:03:43;27.92;;;17.75;;
78987;SDS011;74752;44.786;37.680;2024-03-22T00:04:45;29.40;;;18.27;;
78987;SDS011;74752;44.786;37.680;2024-03-22T00:05:48;32.53;;;17.45;;
78987;SDS011;74752;44.786;37.680;2024-03-22T00:06:51;31.35;;;17.17;;
78987;SDS011;74752;44.786;37.680;2024-03-22T00:07:55;33.53;;;18.23;;
78987;SDS011;74752;44.786;37.680;2024-03-22T00:08:58;33.78;;;18.42;;
78987;SDS011;74752;44.786;37.680;2024-03-22T00:10:00;35.90;;;19.52;;
78987;SDS011;74752;44.786;37.680;2024-03-22T00:11:02;30.70;;;17.20;;
78987;SDS011;74752;44.786;37.680;2024-03-22T00:12:06;35.70;;;19.02;;
78987;SDS011;74752;44.786;37.680;2024-03-22T00:13:08;34.80;;;18.80;;
78987;SDS011;74752;44.786;37.680;2024-03-22T00:14:11;33.47;;;17.48;;
78987;SDS011;74752;44.786;37.680;2024-03-22T00:15:13;30.35;;;16.92;;
78987;SDS011;74752;44.786;37.680;2024-03-22T00:16:20;31.10;;;18.08;;
78987;SDS011;74752;44.786;37.680;2024-03-22T00:17:22;31.80;;;17.63;;
78987;SDS011;74752;44.786;37.680;2024-03-22T00:18:25;32.95;;;16.52;;
78987;SDS011;74752;44.786;37.680;2024-03-22T00:20:59;31.63;;;17.88;;
78987;SDS011;74752;44.786;37.680;2024-03-22T00:22:03;33.92;;;18.15;;
78987;SDS011;74752;44.786;37.680;2024-03-22T00:23:06;29.63;;;17.63;;
78987;SDS011;74752;44.786;37.680;2024-03-22T00:24:08;29.77;;;16.77;;
78987;SDS011;74752;44.786;37.680;2024-03-22T00:25:11;31.85;;;18.23;;
78987;SDS011;74752;44.786;37.680;2024-03-22T00:26:15;36.45;;;17.90;;
78987;SDS011;74752;44.786;37.680;2024-03-22T00:27:17;29.35;;;18.17;;
78987;SDS011;74752;44.786;37.680;2024-03-22T00:28:19;31.08;;;17.42;;
78987;SDS011;74752;44.786;37.680;2024-03-22T00:29:25;29.85;;;17.85;;
78987;SDS011;74752;44.786;37.680;2024-03-22T00:30:28;28.30;;;17.13;;
78987;SDS011;74752;44.786;37.680;2024-03-22T00:31:30;36.63;;;19.05;;
78987;SDS011;74752;44.786;37.680;2024-03-22T00:32:32;32.05;;;17.50;;
78987;SDS011;74752;44.786;37.680;2024-03-22T00:33:35;30.50;;;16.67;;
78987;SDS011;74752;44.786;37.680;2024-03-22T00:34:38;29.00;;;16.00;;
78987;SDS011;74752;44.786;37.680;2024-03-22T00:35:40;27.88;;;15.35;;
78987;SDS011;74752;44.786;37.680;2024-03-22T00:36:42;31.77;;;16.38;;
78987;SDS011;74752;44.786;37.680;2024-03-22T00:37:46;26.65;;;15.38;;
78987;SDS011;74752;44.786;37.680;2024-03-22T00:38:48;25.98;;;15.57;;
78987;SDS011;74752;44.786;37.680;2024-03-22T00:39:50;29.30;;;17.38;;
78987;SDS011;74752;44.786;37.680;2024-03-22T00:40:55;29.20;;;17.05;;
78987;SDS011;74752;44.786;37.680;2024-03-22T00:41:58;31.50;;;16.92;;
78987;SDS011;74752;44.786;37.680;2024-03-22T00:43:00;27.60;;;14.98;;
78987;SDS011;74752;44.786;37.680;2024-03-22T00:44:02;27.30;;;15.68;;
78987;SDS011;74752;44.786;37.680;2024-03-22T00:45:05;29.00;;;14.65;;
78987;SDS011;74752;44.786;37.680;2024-03-22T00:46:08;24.88;;;15.10;;
78987;SDS011;74752;44.786;37.680;2024-03-22T00:47:12;25.90;;;15.73;;
78987;SDS011;74752;44.786;37.680;2024-03-22T00:48:15;24.48;;;15.38;;
78987;SDS011;74752;44.786;37.680;2024-03-22T00:49:18;30.73;;;16.70;;
78987;SDS011;74752;44.786;37.680;2024-03-22T00:50:20;23.23;;;13.98;;
78987;SDS011;74752;44.786;37.680;2024-03-22T00:51:22;26.98;;;13.07;;
78987;SDS011;74752;44.786;37.680;2024-03-22T00:52:25;21.85;;;13.00;;
78987;SDS011;74752;44.786;37.680;2024-03-22T00:53:29;25.13;;;13.95;;
78987;SDS011;74752;44.786;37.680;2024-03-22T00:54:31;27.02;;;13.77;;
78987;SDS011;74752;44.786;37.680;2024-03-22T00:55:34;28.75;;;13.80;;
78987;SDS011;74752;44.786;37.680;2024-03-22T00:56:36;29.67;;;15.43;;
78987;SDS011;74752;44.786;37.680;2024-03-22T00:59:09;24.92;;;14.43;;
78987;SDS011;74752;44.786;37.680;2024-03-22T01:00:11;28.17;;;16.58;;
78987;SDS011;74752;44.786;37.680;2024-03-22T01:01:15;30.98;;;15.82;;
78987;SDS011;74752;44.786;37.680;2024-03-22T01:02:17;28.20;;;15.82;;
78987;SDS011;74752;44.786;37.680;2024-03-22T01:03:20;30.08;;;14.80;;
78987;SDS011;74752;44.786;37.680;2024-03-22T01:04:23;28.38;;;15.95;;
78987;SDS011;74752;44.786;37.680;2024-03-22T01:05:25;24.85;;;14.68;;
78987;SDS011;74752;44.786;37.680;2024-03-22T01:06:28;34.30;;;15.77;;
78987;SDS011;74752;44.786;37.680;2024-03-22T01:07:30;24.92;;;16.05;;
78987;SDS011;74752;44.786;37.680;2024-03-22T01:08:32;28.65;;;15.15;;
78987;SDS011;74752;44.786;37.680;2024-03-22T01:09:36;27.42;;;15.25;;
78987;SDS011;74752;44.786;37.680;2024-03-22T01:10:38;31.70;;;16.83;;
78987;SDS011;74752;44.786;37.680;2024-03-22T01:11:41;28.45;;;15.20;;
78987;SDS011;74752;44.786;37.680;2024-03-22T01:12:43;29.48;;;15.85;;
78987;SDS011;74752;44.786;37.680;2024-03-22T01:18:39;30.75;;;15.98;;
78987;SDS011;74752;44.786;37.680;2024-03-22T01:19:45;29.42;;;16.27;;
78987;SDS011;74752;44.786;37.680;2024-03-22T01:20:47;31.08;;;17.15;;
78987;SDS011;74752;44.786;37.680;2024-03-22T01:21:50;32.60;;;16.60;;
78987;SDS011;74752;44.786;37.680;2024-03-22T01:22:52;26.85;;;15.40;;
78987;SDS011;74752;44.786;37.680;2024-03-22T01:23:55;32.22;;;17.98;;
78987;SDS011;74752;44.786;37.680;2024-03-22T01:24:58;31.05;;;17.15;;
78987;SDS011;74752;44.786;37.680;2024-03-22T01:26:00;29.13;;;15.85;;
78987;SDS011;74752;44.786;37.680;2024-03-22T01:27:02;30.42;;;17.45;;
78987;SDS011;74752;44.786;37.680;2024-03-22T01:28:06;31.38;;;17.40;;
78987;SDS011;74752;44.786;37.680;2024-03-22T01:29:09;27.40;;;15.77;;
78987;SDS011;74752;44.786;37.680;2024-03-22T01:30:11;29.90;;;17.30;;
78987;SDS011;74752;44.786;37.680;2024-03-22T01:31:17;30.02;;;15.77;;
78987;SDS011;74752;44.786;37.680;2024-03-22T01:32:20;30.05;;;16.33;;
78987;SDS011;74752;44.786;37.680;2024-03-22T01:33:22;32.83;;;17.48;;
78987;SDS011;74752;44.786;37.680;2024-03-22T01:34:25;31.08;;;16.02;;
78987;SDS011;74752;44.786;37.680;2024-03-22T01:35:28;36.92;;;17.27;;
78987;SDS011;74752;44.786;37.680;2024-03-22T01:38:00;28.67;;;15.75;;
78987;SDS011;74752;44.786;37.680;2024-03-22T01:39:02;28.25;;;15.00;;
78987;SDS011;74752;44.786;37.680;2024-03-22T01:40:06;30.42;;;17.42;;
78987;SDS011;74752;44.786;37.680;2024-03-22T01:41:10;28.95;;;15.25;;
78987;SDS011;74752;44.786;37.680;2024-03-22T01:42:17;24.85;;;15.70;;
78987;SDS011;74752;44.786;37.680;2024-03-22T01:44:48;27.85;;;14.80;;
78987;SDS011;74752;44.786;37.680;2024-03-22T01:45:51;29.05;;;15.90;;
78987;SDS011;74752;44.786;37.680;2024-03-22T01:46:54;33.42;;;16.30;;
78987;SDS011;74752;44.786;37.680;2024-03-22T01:47:57;28.35;;;15.32;;
78987;SDS011;74752;44.786;37.680;2024-03-22T01:49:01;26.70;;;14.68;;
78987;SDS011;74752;44.786;37.680;2024-03-22T01:50:07;27.85;;;15.10;;
78987;SDS011;74752;44.786;37.680;2024-03-22T01:51:11;29.92;;;15.07;;
78987;SDS011;74752;44.786;37.680;2024-03-22T01:52:14;36.53;;;15.73;;
78987;SDS011;74752;44.786;37.680;2024-03-22T01:53:17;26.67;;;14.23;;
78987;SDS011;74752;44.786;37.680;2024-03-22T01:54:20;24.98;;;13.68;;
78987;SDS011;74752;44.786;37.680;2024-03-22T01:55:27;24.25;;;13.98;;
78987;SDS011;74752;44.786;37.680;2024-03-22T01:58:00;27.83;;;15.10;;
78987;SDS011;74752;44.786;37.680;2024-03-22T01:59:06;25.45;;;14.55;;
78987;SDS011;74752;44.786;37.680;2024-03-22T02:00:09;27.42;;;14.75;;
78987;SDS011;74752;44.786;37.680;2024-03-22T02:01:12;27.75;;;14.00;;
78987;SDS011;74752;44.786;37.680;2024-03-22T02:02:14;23.75;;;12.63;;
78987;SDS011;74752;44.786;37.680;2024-03-22T02:03:17;21.40;;;13.35;;
78987;SDS011;74752;44.786;37.680;2024-03-22T02:04:20;26.13;;;14.65;;
78987;SDS011;74752;44.786;37.680;2024-03-22T02:05:22;27.05;;;14.32;;
78987;SDS011;74752;44.786;37.680;2024-03-22T02:06:26;29.58;;;15.63;;
78987;SDS011;74752;44.786;37.680;2024-03-22T02:08:59;27.58;;;15.20;;
78987;SDS011;74752;44.786;37.680;2024-03-22T02:10:01;24.40;;;14.38;;
78987;SDS011;74752;44.786;37.680;2024-03-22T02:11:05;27.27;;;14.45;;
78987;SDS011;74752;44.786;37.680;2024-03-22T02:12:08;25.40;;;14.60;;
78987;SDS011;74752;44.786;37.680;2024-03-22T02:13:11;24.73;;;13.90;;
78987;SDS011;74752;44.786;37.680;2024-03-22T02:14:13;26.98;;;14.73;;
78987;SDS011;74752;44.786;37.680;2024-03-22T02:15:17;25.80;;;13.73;;
78987;SDS011;74752;44.786;37.680;2024-03-22T02:20:46;23.15;;;12.45;;
78987;SDS011;74752;44.786;37.680;2024-03-22T02:21:49;26.25;;;14.18;;
78987;SDS011;74752;44.786;37.680;2024-03-22T02:22:51;25.25;;;13.20;;
78987;SDS011;74752;44.786;37.680;2024-03-22T02:23:57;25.48;;;13.90;;
78987;SDS011;74752;44.786;37.680;2024-03-22T02:25:00;23.60;;;13.82;;
78987;SDS011;74752;44.786;37.680;2024-03-22T02:26:07;26.60;;;12.70;;
78987;SDS011;74752;44.786;37.680;2024-03-22T02:27:10;23.42;;;13.10;;
78987;SDS011;74752;44.786;37.680;2024-03-22T02:28:12;27.85;;;13.77;;
78987;SDS011;74752;44.786;37.680;2024-03-22T02:29:17;23.30;;;12.48;;
78987;SDS011;74752;44.786;37.680;2024-03-22T02:30:19;24.08;;;14.38;;
78987;SDS011;74752;44.786;37.680;2024-03-22T02:31:21;23.98;;;14.50;;
78987;SDS011;74752;44.786;37.680;2024-03-22T02:32:25;26.27;;;14.35;;
78987;SDS011;74752;44.786;37.680;2024-03-22T02:33:27;23.40;;;14.18;;
78987;SDS011;74752;44.786;37.680;2024-03-22T02:34:30;23.92;;;13.48;;
78987;SDS011;74752;44.786;37.680;2024-03-22T02:35:32;24.67;;;13.90;;
78987;SDS011;74752;44.786;37.680;2024-03-22T02:38:03;28.20;;;15.05;;
78987;SDS011;74752;44.786;37.680;2024-03-22T02:39:06;25.77;;;14.02;;
78987;SDS011;74752;44.786;37.680;2024-03-22T02:41:38;25.38;;;12.80;;
78987;SDS011;74752;44.786;37.680;2024-03-22T02:42:40;25.58;;;13.88;;
78987;SDS011;74752;44.786;37.680;2024-03-22T02:43:42;25.00;;;13.55;;
78987;SDS011;74752;44.786;37.680;2024-03-22T02:44:44;26.33;;;13.95;;
78987;SDS011;74752;44.786;37.680;2024-03-22T02:45:47;27.23;;;14.23;;
78987;SDS011;74752;44.786;37.680;2024-03-22T02:46:50;26.20;;;13.75;;
78987;SDS011;74752;44.786;37.680;2024-03-22T02:47:52;27.33;;;14.88;;
78987;SDS011;74752;44.786;37.680;2024-03-22T02:48:55;23.52;;;13.80;;
78987;SDS011;74752;44.786;37.680;2024-03-22T02:49:57;27.63;;;15.55;;
78987;SDS011;74752;44.786;37.680;2024-03-22T02:51:00;21.10;;;11.98;;
78987;SDS011;74752;44.786;37.680;2024-03-22T02:52:02;27.90;;;13.50;;
78987;SDS011;74752;44.786;37.680;2024-03-22T02:54:35;22.90;;;12.65;;
78987;SDS011;74752;44.786;37.680;2024-03-22T02:55:39;25.42;;;13.70;;
78987;SDS011;74752;44.786;37.680;2024-03-22T02:56:42;25.73;;;14.20;;
78987;SDS011;74752;44.786;37.680;2024-03-22T02:57:45;29.42;;;14.25;;
78987;SDS011;74752;44.786;37.680;2024-03-22T02:58:48;21.63;;;14.07;;
78987;SDS011;74752;44.786;37.680;2024-03-22T02:59:51;24.42;;;13.10;;
78987;SDS011;74752;44.786;37.680;2024-03-22T03:00:53;23.48;;;13.10;;
78987;SDS011;74752;44.786;37.680;2024-03-22T03:01:55;27.63;;;13.77;;
78987;SDS011;74752;44.786;37.680;2024-03-22T03:02:58;24.33;;;13.43;;
78987;SDS011;74752;44.786;37.680;2024-03-22T03:04:00;24.27;;;13.13;;
78987;SDS011;74752;44.786;37.680;2024-03-22T03:07:57;24.50;;;13.60;;
78987;SDS011;74752;44.786;37.680;2024-03-22T03:10:30;23.05;;;12.50;;
78987;SDS011;74752;44.786;37.680;2024-03-22T03:11:32;25.25;;;14.18;;
78987;SDS011;74752;44.786;37.680;2024-03-22T03:12:36;18.58;;;11.27;;
78987;SDS011;74752;44.786;37.680;2024-03-22T03:13:39;22.67;;;12.95;;
78987;SDS011;74752;44.786;37.680;2024-03-22T03:14:41;23.90;;;13.30;;
78987;SDS011;74752;44.786;37.680;2024-03-22T03:15:43;26.20;;;13.93;;
78987;SDS011;74752;44.786;37.680;2024-03-22T03:16:45;27.95;;;14.45;;
78987;SDS011;74752;44.786;37.680;2024-03-22T03:19:17;25.40;;;11.93;;
78987;SDS011;74752;44.786;37.680;2024-03-22T03:20:20;25.92;;;12.70;;
78987;SDS011;74752;44.786;37.680;2024-03-22T03:21:24;26.40;;;12.52;;
78987;SDS011;74752;44.786;37.680;2024-03-22T03:22:26;25.30;;;13.35;;
78987;SDS011;74752;44.786;37.680;2024-03-22T03:23:29;21.27;;;12.68;;
78987;SDS011;74752;44.786;37.680;2024-03-22T03:24:32;23.17;;;13.05;;
78987;SDS011;74752;44.786;37.680;2024-03-22T03:25:34;22.73;;;14.25;;
78987;SDS011;74752;44.786;37.680;2024-03-22T03:26:36;24.10;;;13.18;;
78987;SDS011;74752;44.786;37.680;2024-03-22T03:27:38;27.23;;;13.02;;
78987;SDS011;74752;44.786;37.680;2024-03-22T03:28:41;21.30;;;11.85;;
78987;SDS011;74752;44.786;37.680;2024-03-22T03:29:45;18.00;;;10.15;;
78987;SDS011;74752;44.786;37.680;2024-03-22T03:30:48;22.60;;;11.00;;
78987;SDS011;74752;44.786;37.680;2024-03-22T03:31:50;21.77;;;10.00;;
78987;SDS011;74752;44.786;37.680;2024-03-22T03:32:55;18.95;;;10.30;;
78987;SDS011;74752;44.786;37.680;2024-03-22T03:33:57;16.08;;;7.75;;
78987;SDS011;74752;44.786;37.680;2024-03-22T03:35:00;17.70;;;9.90;;
78987;SDS011;74752;44.786;37.680;2024-03-22T03:36:06;20.52;;;10.60;;
78987;SDS011;74752;44.786;37.680;2024-03-22T03:37:09;26.10;;;11.15;;
78987;SDS011;74752;44.786;37.680;2024-03-22T03:38:12;17.88;;;10.90;;
78987;SDS011;74752;44.786;37.680;2024-03-22T03:39:15;17.83;;;8.95;;
78987;SDS011;74752;44.786;37.680;2024-03-22T03:40:18;17.40;;;9.38;;
78987;SDS011;74752;44.786;37.680;2024-03-22T03:41:26;17.65;;;8.82;;
78987;SDS011;74752;44.786;37.680;2024-03-22T03:47:25;19.88;;;9.55;;
78987;SDS011;74752;44.786;37.680;2024-03-22T03:48:27;20.13;;;11.80;;
78987;SDS011;74752;44.786;37.680;2024-03-22T03:49:30;24.40;;;11.27;;
78987;SDS011;74752;44.786;37.680;2024-03-22T03:50:35;21.70;;;10.93;;
78987;SDS011;74752;44.786;37.680;2024-03-22T03:51:38;21.13;;;12.00;;
78987;SDS011;74752;44.786;37.680;2024-03-22T03:54:10;19.83;;;9.70;;
78987;SDS011;74752;44.786;37.680;2024-03-22T03:55:14;20.73;;;11.07;;
78987;SDS011;74752;44.786;37.680;2024-03-22T03:56:17;20.92;;;11.40;;
78987;SDS011;74752;44.786;37.680;2024-03-22T03:57:20;20.17;;;12.23;;
78987;SDS011;74752;44.786;37.680;2024-03-22T03:58:25;23.70;;;10.73;;
78987;SDS011;74752;44.786;37.680;2024-03-22T03:59:27;21.15;;;11.40;;
78987;SDS011;74752;44.786;37.680;2024-03-22T04:06:49;24.20;;;11.25;;
78987;SDS011;74752;44.786;37.680;2024-03-22T04:07:51;21.55;;;10.80;;
78987;SDS011;74752;44.786;37.680;2024-03-22T04:10:20;20.05;;;11.65;;
78987;SDS011;74752;44.786;37.680;2024-03-22T04:11:22;22.88;;;12.88;;
78987;SDS011;74752;44.786;37.680;2024-03-22T04:12:26;22.63;;;12.90;;
78987;SDS011;74752;44.786;37.680;2024-03-22T04:13:29;23.45;;;12.57;;
78987;SDS011;74752;44.786;37.680;2024-03-22T04:14:31;23.60;;;12.43;;
78987;SDS011;74752;44.786;37.680;2024-03-22T04:17:04;24.63;;;11.32;;
78987;SDS011;74752;44.786;37.680;2024-03-22T04:18:07;22.50;;;12.10;;
78987;SDS011;74752;44.786;37.680;2024-03-22T04:19:10;21.10;;;11.95;;
78987;SDS011;74752;44.786;37.680;2024-03-22T04:20:12;24.77;;;13.32;;
78987;SDS011;74752;44.786;37.680;2024-03-22T04:21:15;21.40;;;11.68;;
78987;SDS011;74752;44.786;37.680;2024-03-22T04:22:18;20.58;;;11.38;;
78987;SDS011;74752;44.786;37.680;2024-03-22T04:23:20;23.35;;;11.93;;
78987;SDS011;74752;44.786;37.680;2024-03-22T04:24:23;23.10;;;12.80;;
78987;SDS011;74752;44.786;37.680;2024-03-22T04:29:35;19.10;;;10.77;;
78987;SDS011;74752;44.786;37.680;2024-03-22T04:30:37;20.25;;;11.93;;
78987;SDS011;74752;44.786;37.680;2024-03-22T04:31:39;25.13;;;11.35;;
78987;SDS011;74752;44.786;37.680;2024-03-22T04:32:42;21.75;;;12.40;;
78987;SDS011;74752;44.786;37.680;2024-03-22T04:33:51;19.30;;;10.80;;
78987;SDS011;74752;44.786;37.680;2024-03-22T04:34:53;24.38;;;14.32;;
78987;SDS011;74752;44.786;37.680;2024-03-22T04:35:57;24.55;;;12.98;;
78987;SDS011;74752;44.786;37.680;2024-03-22T04:37:00;21.27;;;12.27;;
78987;SDS011;74752;44.786;37.680;2024-03-22T04:38:02;23.83;;;12.05;;
78987;SDS011;74752;44.786;37.680;2024-03-22T04:40:32;21.02;;;11.23;;
78987;SDS011;74752;44.786;37.680;2024-03-22T04:41:35;20.23;;;11.13;;
78987;SDS011;74752;44.786;37.680;2024-03-22T04:42:37;24.95;;;12.63;;
78987;SDS011;74752;44.786;37.680;2024-03-22T04:45:08;21.17;;;12.80;;
78987;SDS011;74752;44.786;37.680;2024-03-22T04:46:10;19.58;;;10.82;;
78987;SDS011;74752;44.786;37.680;2024-03-22T04:47:13;22.88;;;11.18;;
78987;SDS011;74752;44.786;37.680;2024-03-22T04:50:10;19.48;;;11.15;;
78987;SDS011;74752;44.786;37.680;2024-03-22T04:51:15;23.15;;;12.23;;
78987;SDS011;74752;44.786;37.680;2024-03-22T04:52:18;20.65;;;11.40;;
78987;SDS011;74752;44.786;37.680;2024-03-22T04:53:20;19.15;;;11.85;;
78987;SDS011;74752;44.786;37.680;2024-03-22T04:54:22;19.20;;;11.65;;
78987;SDS011;74752;44.786;37.680;2024-03-22T04:55:25;18.83;;;11.32;;
78987;SDS011;74752;44.786;37.680;2024-03-22T04:56:27;23.90;;;12.80;;
78987;SDS011;74752;44.786;37.680;2024-03-22T04:57:30;27.20;;;14.02;;
78987;SDS011;74752;44.786;37.680;2024-03-22T04:58:32;22.80;;;12.60;;
78987;SDS011;74752;44.786;37.680;2024-03-22T04:59:35;22.75;;;12.85;;
78987;SDS011;74752;44.786;37.680;2024-03-22T05:00:38;19.95;;;11.52;;
78987;SDS011;74752;44.786;37.680;2024-03-22T05:03:12;19.67;;;12.35;;
78987;SDS011;74752;44.786;37.680;2024-03-22T05:04:16;23.02;;;12.50;;
78987;SDS011;74752;44.786;37.680;2024-03-22T05:05:19;17.90;;;10.50;;
78987;SDS011;74752;44.786;37.680;2024-03-22T05:06:21;20.15;;;10.18;;
78987;SDS011;74752;44.786;37.680;2024-03-22T05:07:25;16.55;;;10.25;;
78987;SDS011;74752;44.786;37.680;2024-03-22T05:11:50;18.33;;;9.77;;
78987;SDS011;74752;44.786;37.680;2024-03-22T05:12:52;18.95;;;10.63;;
78987;SDS011;74752;44.786;37.680;2024-03-22T05:13:57;16.35;;;9.68;;
78987;SDS011;74752;44.786;37.680;2024-03-22T05:15:00;22.38;;;10.68;;
78987;SDS011;74752;44.786;37.680;2024-03-22T05:20:30;16.65;;;9.20;;
78987;SDS011;74752;44.786;37.680;2024-03-22T05:21:32;23.35;;;11.63;;
78987;SDS011;74752;44.786;37.680;2024-03-22T05:22:38;19.98;;;12.52;;
78987;SDS011;74752;44.786;37.680;2024-03-22T05:23:40;18.17;;;9.82;;
78987;SDS011;74752;44.786;37.680;2024-03-22T05:24:44;18.42;;;9.43;;
78987;SDS011;74752;44.786;37.680;2024-03-22T05:25:47;15.85;;;9.80;;
78987;SDS011;74752;44.786;37.680;2024-03-22T05:29:45;17.10;;;9.27;;
78987;SDS011;74752;44.786;37.680;2024-03-22T05:32:40;15.68;;;9.15;;
78987;SDS011;74752;44.786;37.680;2024-03-22T05:33:42;14.80;;;8.00;;
78987;SDS011;74752;44.786;37.680;2024-03-22T05:34:45;16.48;;;9.68;;
78987;SDS011;74752;44.786;37.680;2024-03-22T05:35:48;20.15;;;9.80;;
78987;SDS011;74752;44.786;37.680;2024-03-22T05:36:50;17.58;;;9.73;;
78987;SDS011;74752;44.786;37.680;2024-03-22T05:37:52;19.23;;;9.20;;
78987;SDS011;74752;44.786;37.680;2024-03-22T05:38:56;16.05;;;8.57;;
78987;SDS011;74752;44.786;37.680;2024-03-22T05:40:00;17.25;;;9.80;;
78987;SDS011;74752;44.786;37.680;2024-03-22T05:42:36;14.48;;;8.10;;
78987;SDS011;74752;44.786;37.680;2024-03-22T05:45:11;18.25;;;9.55;;
78987;SDS011;74752;44.786;37.680;2024-03-22T05:46:14;13.85;;;8.98;;
78987;SDS011;74752;44.786;37.680;2024-03-22T05:48:46;14.75;;;8.60;;
78987;SDS011;74752;44.786;37.680;2024-03-22T05:51:26;14.30;;;9.65;;
78987;SDS011;74752;44.786;37.680;2024-03-22T05:52:29;18.25;;;9.30;;
78987;SDS011;74752;44.786;37.680;2024-03-22T05:53:32;19.20;;;10.13;;
78987;SDS011;74752;44.786;37.680;2024-03-22T05:56:06;18.83;;;9.57;;
78987;SDS011;74752;44.786;37.680;2024-03-22T05:57:08;16.52;;;9.23;;
78987;SDS011;74752;44.786;37.680;2024-03-22T05:59:39;13.10;;;7.78;;
78987;SDS011;74752;44.786;37.680;2024-03-22T06:00:47;13.30;;;8.05;;
78987;SDS011;74752;44.786;37.680;2024-03-22T06:01:50;12.13;;;6.65;;
78987;SDS011;74752;44.786;37.680;2024-03-22T06:02:55;14.80;;;8.15;;
78987;SDS011;74752;44.786;37.680;2024-03-22T06:03:58;11.25;;;7.03;;
78987;SDS011;74752;44.786;37.680;2024-03-22T06:06:38;12.65;;;6.25;;
78987;SDS011;74752;44.786;37.680;2024-03-22T06:07:41;15.20;;;7.28;;
78987;SDS011;74752;44.786;37.680;2024-03-22T06:08:47;14.40;;;7.18;;
78987;SDS011;74752;44.786;37.680;2024-03-22T06:09:55;12.32;;;6.63;;
78987;SDS011;74752;44.786;37.680;2024-03-22T06:10:58;13.10;;;7.50;;
78987;SDS011;74752;44.786;37.680;2024-03-22T06:12:01;12.10;;;6.82;;
78987;SDS011;74752;44.786;37.680;2024-03-22T06:13:06;13.73;;;7.15;;
78987;SDS011;74752;44.786;37.680;2024-03-22T06:14:17;12.18;;;6.95;;
78987;SDS011;74752;44.786;37.680;2024-03-22T06:16:57;11.85;;;6.70;;
78987;SDS011;74752;44.786;37.680;2024-03-22T06:19:30;13.38;;;7.88;;
78987;SDS011;74752;44.786;37.680;2024-03-22T06:20:37;10.65;;;6.43;;
78987;SDS011;74752;44.786;37.680;2024-03-22T06:21:40;10.95;;;6.82;;
78987;SDS011;74752;44.786;37.680;2024-03-22T06:22:44;7.32;;;4.90;;
78987;SDS011;74752;44.786;37.680;2024-03-22T06:23:57;9.88;;;5.82;;
78987;SDS011;74752;44.786;37.680;2024-03-22T06:25:22;9.10;;;5.72;;
78987;SDS011;74752;44.786;37.680;2024-03-22T06:26:26;10.23;;;6.03;;
78987;SDS011;74752;44.786;37.680;2024-03-22T06:27:30;7.25;;;4.22;;
78987;SDS011;74752;44.786;37.680;2024-03-22T06:28:34;7.72;;;4.82;;
78987;SDS011;74752;44.786;37.680;2024-03-22T06:29:38;8.25;;;6.03;;
78987;SDS011;74752;44.786;37.680;2024-03-22T06:30:42;13.98;;;6.00;;
78987;SDS011;74752;44.786;37.680;2024-03-22T06:31:46;11.93;;;6.53;;
78987;SDS011;74752;44.786;37.680;2024-03-22T06:34:30;9.18;;;5.80;;
78987;SDS011;74752;44.786;37.680;2024-03-22T06:35:42;10.38;;;4.65;;
78987;SDS011;74752;44.786;37.680;2024-03-22T06:37:05;7.25;;;3.80;;
78987;SDS011;74752;44.786;37.680;2024-03-22T06:39:36;8.07;;;4.30;;
78987;SDS011;74752;44.786;37.680;2024-03-22T06:40:39;12.32;;;5.22;;
78987;SDS011;74752;44.786;37.680;2024-03-22T06:41:44;12.43;;;5.38;;
78987;SDS011;74752;44.786;37.680;2024-03-22T06:42:48;8.40;;;4.22;;
78987;SDS011;74752;44.786;37.680;2024-03-22T06:44:36;9.00;;;4.40;;
78987;SDS011;74752;44.786;37.680;2024-03-22T06:45:38;7.18;;;4.18;;
78987;SDS011;74752;44.786;37.680;2024-03-22T06:48:09;7.35;;;3.55;;
78987;SDS011;74752;44.786;37.680;2024-03-22T06:49:12;7.20;;;3.78;;
78987;SDS011;74752;44.786;37.680;2024-03-22T06:51:46;9.55;;;5.80;;
78987;SDS011;74752;44.786;37.680;2024-03-22T06:53:08;10.82;;;4.35;;
78987;SDS011;74752;44.786;37.680;2024-03-22T06:54:12;7.60;;;4.50;;
78987;SDS011;74752;44.786;37.680;2024-03-22T06:55:21;7.43;;;3.90;;
78987;SDS011;74752;44.786;37.680;2024-03-22T06:59:26;8.38;;;5.43;;
78987;SDS011;74752;44.786;37.680;2024-03-22T07:00:29;7.75;;;4.90;;
78987;SDS011;74752;44.786;37.680;2024-03-22T07:01:36;9.30;;;5.60;;
78987;SDS011;74752;44.786;37.680;2024-03-22T07:02:44;7.72;;;4.97;;
78987;SDS011;74752;44.786;37.680;2024-03-22T07:03:47;8.55;;;5.75;;
78987;SDS011;74752;44.786;37.680;2024-03-22T07:04:50;8.50;;;5.63;;
78987;SDS011;74752;44.786;37.680;2024-03-22T07:05:53;9.48;;;6.18;;
78987;SDS011;74752;44.786;37.680;2024-03-22T07:08:25;9.02;;;5.57;;
78987;SDS011;74752;44.786;37.680;2024-03-22T07:09:28;10.05;;;6.25;;
78987;SDS011;74752;44.786;37.680;2024-03-22T07:13:31;9.35;;;5.43;;
78987;SDS011;74752;44.786;37.680;2024-03-22T07:14:34;10.23;;;5.85;;
78987;SDS011;74752;44.786;37.680;2024-03-22T07:15:38;10.23;;;6.38;;
78987;SDS011;74752;44.786;37.680;2024-03-22T07:16:40;9.85;;;6.43;;
78987;SDS011;74752;44.786;37.680;2024-03-22T07:17:42;13.15;;;6.00;;
78987;SDS011;74752;44.786;37.680;2024-03-22T07:20:15;8.77;;;5.60;;
78987;SDS011;74752;44.786;37.680;2024-03-22T07:21:23;12.60;;;5.40;;
78987;SDS011;74752;44.786;37.680;2024-03-22T07:22:25;11.40;;;6.70;;
78987;SDS011;74752;44.786;37.680;2024-03-22T07:23:27;10.02;;;6.45;;
78987;SDS011;74752;44.786;37.680;2024-03-22T07:26:00;9.10;;;5.65;;
78987;SDS011;74752;44.786;37.680;2024-03-22T07:27:02;10.63;;;6.95;;
78987;SDS011;74752;44.786;37.680;2024-03-22T07:28:05;11.40;;;7.63;;
78987;SDS011;74752;44.786;37.680;2024-03-22T07:30:37;11.90;;;7.43;;
78987;SDS011;74752;44.786;37.680;2024-03-22T07:31:40;10.63;;;7.10;;
78987;SDS011;74752;44.786;37.680;2024-03-22T07:32:42;12.50;;;7.70;;
78987;SDS011;74752;44.786;37.680;2024-03-22T07:33:45;13.57;;;8.93;;
78987;SDS011;74752;44.786;37.680;2024-03-22T07:34:47;13.25;;;8.05;;
78987;SDS011;74752;44.786;37.680;2024-03-22T07:35:50;14.43;;;8.40;;
78987;SDS011;74752;44.786;37.680;2024-03-22T07:36:53;11.25;;;6.88;;
78987;SDS011;74752;44.786;37.680;2024-03-22T07:37:56;12.77;;;8.23;;
78987;SDS011;74752;44.786;37.680;2024-03-22T07:38:59;13.15;;;7.20;;
78987;SDS011;74752;44.786;37.680;2024-03-22T07:40:02;12.38;;;7.45;;
78987;SDS011;74752;44.786;37.680;2024-03-22T07:41:05;12.82;;;7.47;;
78987;SDS011;74752;44.786;37.680;2024-03-22T07:42:09;13.00;;;6.97;;
78987;SDS011;74752;44.786;37.680;2024-03-22T07:43:11;12.07;;;7.03;;
78987;SDS011;74752;44.786;37.680;2024-03-22T07:44:20;11.52;;;7.07;;
78987;SDS011;74752;44.786;37.680;2024-03-22T07:45:29;11.70;;;6.70;;
78987;SDS011;74752;44.786;37.680;2024-03-22T07:46:31;11.98;;;7.00;;
78987;SDS011;74752;44.786;37.680;2024-03-22T07:47:35;11.68;;;7.18;;
78987;SDS011;74752;44.786;37.680;2024-03-22T07:48:40;11.30;;;7.07;;